sensor_id;sensor_type;location;lat;lon;timestamp;pressure;altitude;pressure_sealevel;temperature;humidity
21574;BME280;10948;48.706;9.258;2023-07-29T00:00:46;97373.69;;;17.34;100.00
21574;BME280;10948;48.706;9.258;2023-07-29T00:03:12;97370.72;;;17.56;100.00
21574;BME280;10948;48.706;9.258;2023-07-29T00:05:37;97366.19;;;17.39;100.00
21574;BME280;10948;48.706;9.258;2023-07-29T00:08:03;97353.72;;;17.51;100.00
21574;BME280;10948;48.706;9.258;2023-07-29T00:10:28;97350.63;;;17.55;100.00
21574;BME280;10948;48.706;9.258;2023-07-29T00:12:54;97356.00;;;17.63;100.00
21574;BME280;10948;48.706;9.258;2023-07-29T00:15:19;97346.06;;;17.57;100.00
21574;BME280;10948;48.706;9.258;2023-07-29T00:17:44;97347.03;;;17.56;100.00
21574;BME280;10948;48.706;9.258;2023-07-29T00:20:09;97351.31;;;17.57;100.00
21574;BME280;10948;48.706;9.258;2023-07-29T00:22:35;97348.28;;;17.52;100.00
21574;BME280;10948;48.706;9.258;2023-07-29T00:25:00;97352.78;;;17.69;100.00
21574;BME280;10948;48.706;9.258;2023-07-29T00:27:25;97356.25;;;17.70;100.00
21574;BME280;10948;48.706;9.258;2023-07-29T00:29:51;97349.22;;;17.61;100.00
21574;BME280;10948;48.706;9.258;2023-07-29T00:32:16;97346.16;;;17.65;100.00
21574;BME280;10948;48.706;9.258;2023-07-29T00:34:41;97344.25;;;17.58;100.00
21574;BME280;10948;48.706;9.258;2023-07-29T00:37:06;97345.63;;;17.62;100.00
21574;BME280;10948;48.706;9.258;2023-07-29T00:39:32;97347.53;;;17.69;100.00
21574;BME280;10948;48.706;9.258;2023-07-29T00:41:57;97342.88;;;17.54;100.00
21574;BME280;10948;48.706;9.258;2023-07-29T00:44:23;97334.84;;;17.55;100.00
21574;BME280;10948;48.706;9.258;2023-07-29T00:46:49;97337.31;;;17.57;100.00
21574;BME280;10948;48.706;9.258;2023-07-29T00:49:15;97341.47;;;17.59;100.00
21574;BME280;10948;48.706;9.258;2023-07-29T00:51:40;97344.53;;;17.55;100.00
21574;BME280;10948;48.706;9.258;2023-07-29T00:54:05;97345.38;;;17.55;100.00
21574;BME280;10948;48.706;9.258;2023-07-29T00:56:30;97337.38;;;17.47;100.00
21574;BME280;10948;48.706;9.258;2023-07-29T00:58:56;97335.13;;;17.52;100.00
21574;BME280;10948;48.706;9.258;2023-07-29T01:01:25;97342.25;;;17.42;100.00
21574;BME280;10948;48.706;9.258;2023-07-29T01:03:50;97342.91;;;17.44;100.00
21574;BME280;10948;48.706;9.258;2023-07-29T01:06:23;97342.88;;;17.54;100.00
21574;BME280;10948;48.706;9.258;2023-07-29T01:08:57;97340.97;;;17.46;100.00
21574;BME280;10948;48.706;9.258;2023-07-29T01:11:37;97325.72;;;17.50;100.00
21574;BME280;10948;48.706;9.258;2023-07-29T01:14:07;97331.31;;;17.37;100.00
21574;BME280;10948;48.706;9.258;2023-07-29T01:16:46;97331.00;;;17.40;100.00
21574;BME280;10948;48.706;9.258;2023-07-29T01:19:26;97323.38;;;17.47;100.00
21574;BME280;10948;48.706;9.258;2023-07-29T01:21:58;97337.97;;;17.41;100.00
21574;BME280;10948;48.706;9.258;2023-07-29T01:24:23;97323.53;;;17.45;100.00
21574;BME280;10948;48.706;9.258;2023-07-29T01:26:48;97330.56;;;17.54;100.00
21574;BME280;10948;48.706;9.258;2023-07-29T01:29:13;97325.72;;;17.50;100.00
21574;BME280;10948;48.706;9.258;2023-07-29T01:31:40;97321.25;;;17.60;100.00
21574;BME280;10948;48.706;9.258;2023-07-29T01:36:37;97313.81;;;17.55;100.00
21574;BME280;10948;48.706;9.258;2023-07-29T01:39:05;97325.88;;;17.48;100.00
21574;BME280;10948;48.706;9.258;2023-07-29T01:41:32;97337.09;;;17.50;100.00
21574;BME280;10948;48.706;9.258;2023-07-29T01:43:58;97333.47;;;17.51;100.00
21574;BME280;10948;48.706;9.258;2023-07-29T01:46:23;97324.59;;;17.52;100.00
21574;BME280;10948;48.706;9.258;2023-07-29T01:48:48;97322.66;;;17.54;100.00
21574;BME280;10948;48.706;9.258;2023-07-29T01:51:14;97317.69;;;17.51;100.00
21574;BME280;10948;48.706;9.258;2023-07-29T01:53:39;97326.66;;;17.58;100.00
21574;BME280;10948;48.706;9.258;2023-07-29T01:56:04;97324.31;;;17.55;100.00
21574;BME280;10948;48.706;9.258;2023-07-29T01:58:29;97314.06;;;17.52;100.00
21574;BME280;10948;48.706;9.258;2023-07-29T02:00:55;97308.81;;;17.52;100.00
21574;BME280;10948;48.706;9.258;2023-07-29T02:03:20;97311.44;;;17.52;100.00
21574;BME280;10948;48.706;9.258;2023-07-29T02:05:45;97304.38;;;17.53;100.00
21574;BME280;10948;48.706;9.258;2023-07-29T02:08:11;97303.59;;;17.43;100.00
21574;BME280;10948;48.706;9.258;2023-07-29T02:10:36;97305.81;;;17.47;100.00
21574;BME280;10948;48.706;9.258;2023-07-29T02:13:02;97303.84;;;17.49;100.00
21574;BME280;10948;48.706;9.258;2023-07-29T02:15:28;97300.00;;;17.44;100.00
21574;BME280;10948;48.706;9.258;2023-07-29T02:17:53;97297.47;;;17.52;100.00
21574;BME280;10948;48.706;9.258;2023-07-29T02:20:18;97295.28;;;17.47;100.00
21574;BME280;10948;48.706;9.258;2023-07-29T02:22:44;97283.19;;;17.54;100.00
21574;BME280;10948;48.706;9.258;2023-07-29T02:25:09;97289.94;;;17.57;100.00
21574;BME280;10948;48.706;9.258;2023-07-29T02:27:35;97287.25;;;17.39;100.00
21574;BME280;10948;48.706;9.258;2023-07-29T02:30:00;97296.97;;;17.39;100.00
21574;BME280;10948;48.706;9.258;2023-07-29T02:32:25;97294.75;;;17.34;100.00
21574;BME280;10948;48.706;9.258;2023-07-29T02:34:50;97289.22;;;17.37;100.00
21574;BME280;10948;48.706;9.258;2023-07-29T02:37:16;97291.41;;;17.32;100.00
21574;BME280;10948;48.706;9.258;2023-07-29T02:39:41;97278.97;;;17.34;100.00
21574;BME280;10948;48.706;9.258;2023-07-29T02:42:07;97296.97;;;17.29;100.00
21574;BME280;10948;48.706;9.258;2023-07-29T02:44:32;97292.81;;;17.36;100.00
21574;BME280;10948;48.706;9.258;2023-07-29T02:46:57;97281.72;;;17.42;100.00
21574;BME280;10948;48.706;9.258;2023-07-29T02:49:22;97300.41;;;17.39;100.00
21574;BME280;10948;48.706;9.258;2023-07-29T02:51:48;97294.34;;;17.29;100.00
21574;BME280;10948;48.706;9.258;2023-07-29T02:54:14;97289.75;;;17.31;100.00
21574;BME280;10948;48.706;9.258;2023-07-29T02:56:39;97279.91;;;17.33;100.00
21574;BME280;10948;48.706;9.258;2023-07-29T02:59:04;97287.53;;;17.36;100.00
21574;BME280;10948;48.706;9.258;2023-07-29T03:01:30;97275.94;;;17.29;100.00
21574;BME280;10948;48.706;9.258;2023-07-29T03:03:55;97278.13;;;17.34;100.00
21574;BME280;10948;48.706;9.258;2023-07-29T03:06:20;97265.41;;;17.39;100.00
21574;BME280;10948;48.706;9.258;2023-07-29T03:08:45;97269.25;;;17.44;100.00
21574;BME280;10948;48.706;9.258;2023-07-29T03:11:12;97267.28;;;17.46;100.00
21574;BME280;10948;48.706;9.258;2023-07-29T03:13:37;97267.59;;;17.43;100.00
21574;BME280;10948;48.706;9.258;2023-07-29T03:16:06;97256.81;;;17.37;100.00
21574;BME280;10948;48.706;9.258;2023-07-29T03:18:31;97256.53;;;17.40;100.00
21574;BME280;10948;48.706;9.258;2023-07-29T03:20:57;97258.06;;;17.33;100.00
21574;BME280;10948;48.706;9.258;2023-07-29T03:23:22;97261.22;;;17.36;100.00
21574;BME280;10948;48.706;9.258;2023-07-29T03:25:50;97252.78;;;17.42;100.00
21574;BME280;10948;48.706;9.258;2023-07-29T03:28:21;97239.31;;;17.45;100.00
21574;BME280;10948;48.706;9.258;2023-07-29T03:30:47;97232.41;;;17.44;100.00
21574;BME280;10948;48.706;9.258;2023-07-29T03:33:12;97244.06;;;17.32;100.00
21574;BME280;10948;48.706;9.258;2023-07-29T03:35:37;97232.44;;;17.35;100.00
21574;BME280;10948;48.706;9.258;2023-07-29T03:38:02;97238.53;;;17.35;100.00
21574;BME280;10948;48.706;9.258;2023-07-29T03:40:27;97248.00;;;17.28;100.00
21574;BME280;10948;48.706;9.258;2023-07-29T03:42:53;97242.81;;;17.36;100.00
21574;BME280;10948;48.706;9.258;2023-07-29T03:45:18;97245.16;;;17.39;100.00
21574;BME280;10948;48.706;9.258;2023-07-29T03:47:43;97238.53;;;17.35;100.00
21574;BME280;10948;48.706;9.258;2023-07-29T03:50:08;97245.19;;;17.30;100.00
21574;BME280;10948;48.706;9.258;2023-07-29T03:52:34;97256.56;;;17.30;100.00
21574;BME280;10948;48.706;9.258;2023-07-29T03:54:59;97247.94;;;17.47;100.00
21574;BME280;10948;48.706;9.258;2023-07-29T03:57:24;97244.59;;;17.45;100.00
21574;BME280;10948;48.706;9.258;2023-07-29T03:59:49;97245.03;;;17.41;100.00
21574;BME280;10948;48.706;9.258;2023-07-29T04:02:14;97241.56;;;17.40;100.00
21574;BME280;10948;48.706;9.258;2023-07-29T04:04:40;97245.56;;;17.44;100.00
21574;BME280;10948;48.706;9.258;2023-07-29T04:07:07;97249.19;;;17.43;100.00
21574;BME280;10948;48.706;9.258;2023-07-29T04:09:32;97250.56;;;17.47;100.00
21574;BME280;10948;48.706;9.258;2023-07-29T04:11:58;97245.06;;;17.58;100.00
21574;BME280;10948;48.706;9.258;2023-07-29T04:14:23;97250.91;;;17.52;100.00
21574;BME280;10948;48.706;9.258;2023-07-29T04:16:48;97240.41;;;17.52;100.00
21574;BME280;10948;48.706;9.258;2023-07-29T04:19:14;97244.31;;;17.48;100.00
21574;BME280;10948;48.706;9.258;2023-07-29T04:21:39;97235.13;;;17.52;100.00
21574;BME280;10948;48.706;9.258;2023-07-29T04:24:04;97235.13;;;17.52;100.00
21574;BME280;10948;48.706;9.258;2023-07-29T04:26:29;97227.69;;;17.48;100.00
21574;BME280;10948;48.706;9.258;2023-07-29T04:28:55;97231.25;;;17.56;100.00
21574;BME280;10948;48.706;9.258;2023-07-29T04:31:20;97239.72;;;17.50;100.00
21574;BME280;10948;48.706;9.258;2023-07-29T04:33:45;97246.19;;;17.56;100.00
21574;BME280;10948;48.706;9.258;2023-07-29T04:36:10;97249.75;;;17.64;100.00
21574;BME280;10948;48.706;9.258;2023-07-29T04:38:36;97253.03;;;17.66;100.00
21574;BME280;10948;48.706;9.258;2023-07-29T04:41:02;97254.34;;;17.62;100.00
21574;BME280;10948;48.706;9.258;2023-07-29T04:43:31;97278.31;;;17.59;100.00
21574;BME280;10948;48.706;9.258;2023-07-29T04:45:56;97265.25;;;17.67;100.00
21574;BME280;10948;48.706;9.258;2023-07-29T04:48:22;97269.19;;;17.54;100.00
21574;BME280;10948;48.706;9.258;2023-07-29T04:50:47;97272.22;;;17.59;100.00
21574;BME280;10948;48.706;9.258;2023-07-29T04:53:12;97261.66;;;17.68;100.00
21574;BME280;10948;48.706;9.258;2023-07-29T04:55:37;97268.66;;;17.77;100.00
21574;BME280;10948;48.706;9.258;2023-07-29T04:58:03;97265.94;;;17.69;100.00
21574;BME280;10948;48.706;9.258;2023-07-29T05:00:28;97270.75;;;17.74;100.00
21574;BME280;10948;48.706;9.258;2023-07-29T05:02:53;97280.44;;;17.73;100.00
21574;BME280;10948;48.706;9.258;2023-07-29T05:05:18;97283.91;;;17.74;100.00
21574;BME280;10948;48.706;9.258;2023-07-29T05:07:44;97281.13;;;17.75;100.00
21574;BME280;10948;48.706;9.258;2023-07-29T05:10:09;97289.91;;;17.66;100.00
21574;BME280;10948;48.706;9.258;2023-07-29T05:12:34;97275.47;;;17.70;100.00
21574;BME280;10948;48.706;9.258;2023-07-29T05:14:59;97274.69;;;17.60;100.00
21574;BME280;10948;48.706;9.258;2023-07-29T05:17:25;97278.78;;;17.72;100.00
21574;BME280;10948;48.706;9.258;2023-07-29T05:19:50;97276.22;;;17.80;100.00
21574;BME280;10948;48.706;9.258;2023-07-29T05:22:15;97278.88;;;17.80;100.00
21574;BME280;10948;48.706;9.258;2023-07-29T05:24:41;97275.94;;;17.83;100.00
21574;BME280;10948;48.706;9.258;2023-07-29T05:27:06;97264.69;;;17.91;100.00
21574;BME280;10948;48.706;9.258;2023-07-29T05:29:33;97271.16;;;17.96;100.00
21574;BME280;10948;48.706;9.258;2023-07-29T05:31:58;97278.97;;;17.88;100.00
21574;BME280;10948;48.706;9.258;2023-07-29T05:34:24;97280.44;;;18.00;100.00
21574;BME280;10948;48.706;9.258;2023-07-29T05:36:49;97278.75;;;17.99;100.00
21574;BME280;10948;48.706;9.258;2023-07-29T05:39:14;97277.16;;;18.06;100.00
21574;BME280;10948;48.706;9.258;2023-07-29T05:41:39;97268.91;;;18.19;100.00
21574;BME280;10948;48.706;9.258;2023-07-29T05:44:04;97258.53;;;18.35;100.00
21574;BME280;10948;48.706;9.258;2023-07-29T05:46:30;97251.28;;;18.54;100.00
21574;BME280;10948;48.706;9.258;2023-07-29T05:48:55;97260.38;;;18.85;100.00
21574;BME280;10948;48.706;9.258;2023-07-29T05:51:20;97249.75;;;19.20;100.00
21574;BME280;10948;48.706;9.258;2023-07-29T05:53:45;97257.34;;;19.23;100.00
21574;BME280;10948;48.706;9.258;2023-07-29T05:56:10;97252.31;;;19.12;100.00
21574;BME280;10948;48.706;9.258;2023-07-29T05:58:36;97253.25;;;19.03;100.00
21574;BME280;10948;48.706;9.258;2023-07-29T06:01:01;97255.84;;;18.95;100.00
21574;BME280;10948;48.706;9.258;2023-07-29T06:03:26;97245.97;;;18.97;100.00
21574;BME280;10948;48.706;9.258;2023-07-29T06:05:51;97248.59;;;18.97;100.00
21574;BME280;10948;48.706;9.258;2023-07-29T06:08:17;97246.88;;;19.14;100.00
21574;BME280;10948;48.706;9.258;2023-07-29T06:10:42;97245.97;;;19.23;100.00
21574;BME280;10948;48.706;9.258;2023-07-29T06:13:07;97248.28;;;19.26;100.00
21574;BME280;10948;48.706;9.258;2023-07-29T06:15:33;97245.63;;;19.59;100.00
21574;BME280;10948;48.706;9.258;2023-07-29T06:17:58;97240.78;;;20.04;100.00
21574;BME280;10948;48.706;9.258;2023-07-29T06:20:23;97242.81;;;20.42;100.00
21574;BME280;10948;48.706;9.258;2023-07-29T06:22:48;97255.03;;;20.51;100.00
21574;BME280;10948;48.706;9.258;2023-07-29T06:25:14;97252.38;;;20.11;100.00
21574;BME280;10948;48.706;9.258;2023-07-29T06:27:39;97252.38;;;20.11;100.00
21574;BME280;10948;48.706;9.258;2023-07-29T06:30:05;97258.00;;;20.08;100.00
21574;BME280;10948;48.706;9.258;2023-07-29T06:32:30;97260.00;;;20.22;100.00
21574;BME280;10948;48.706;9.258;2023-07-29T06:34:55;97255.22;;;20.50;100.00
21574;BME280;10948;48.706;9.258;2023-07-29T06:37:20;97249.78;;;20.27;100.00
21574;BME280;10948;48.706;9.258;2023-07-29T06:39:46;97255.53;;;20.55;100.00
21574;BME280;10948;48.706;9.258;2023-07-29T06:42:12;97255.72;;;20.13;100.00
21574;BME280;10948;48.706;9.258;2023-07-29T06:44:37;97258.66;;;20.18;100.00
21574;BME280;10948;48.706;9.258;2023-07-29T06:47:02;97266.66;;;19.77;100.00
21574;BME280;10948;48.706;9.258;2023-07-29T06:49:27;97267.06;;;19.56;100.00
21574;BME280;10948;48.706;9.258;2023-07-29T06:51:53;97271.63;;;19.46;100.00
21574;BME280;10948;48.706;9.258;2023-07-29T06:54:18;97281.16;;;19.39;100.00
21574;BME280;10948;48.706;9.258;2023-07-29T06:56:43;97274.97;;;19.23;100.00
21574;BME280;10948;48.706;9.258;2023-07-29T06:59:08;97283.06;;;19.21;100.00
21574;BME280;10948;48.706;9.258;2023-07-29T07:01:34;97290.88;;;19.13;100.00
21574;BME280;10948;48.706;9.258;2023-07-29T07:03:59;97286.03;;;19.01;100.00
21574;BME280;10948;48.706;9.258;2023-07-29T07:06:24;97293.97;;;19.01;100.00
21574;BME280;10948;48.706;9.258;2023-07-29T07:08:50;97302.75;;;19.09;100.00
21574;BME280;10948;48.706;9.258;2023-07-29T07:11:15;97319.56;;;19.08;100.00
21574;BME280;10948;48.706;9.258;2023-07-29T07:13:41;97322.47;;;18.97;100.00
21574;BME280;10948;48.706;9.258;2023-07-29T07:16:06;97318.22;;;19.04;100.00
21574;BME280;10948;48.706;9.258;2023-07-29T07:18:31;97313.94;;;19.03;100.00
21574;BME280;10948;48.706;9.258;2023-07-29T07:20:56;97319.06;;;19.05;100.00
21574;BME280;10948;48.706;9.258;2023-07-29T07:23:21;97309.41;;;18.96;100.00
21574;BME280;10948;48.706;9.258;2023-07-29T07:25:47;97313.09;;;19.03;100.00
21574;BME280;10948;48.706;9.258;2023-07-29T07:28:12;97301.72;;;19.02;100.00
21574;BME280;10948;48.706;9.258;2023-07-29T07:30:39;97301.09;;;19.08;100.00
21574;BME280;10948;48.706;9.258;2023-07-29T07:33:06;97298.16;;;19.11;100.00
21574;BME280;10948;48.706;9.258;2023-07-29T07:35:31;97307.56;;;19.14;100.00
21574;BME280;10948;48.706;9.258;2023-07-29T07:37:56;97300.22;;;19.25;100.00
21574;BME280;10948;48.706;9.258;2023-07-29T07:40:21;97294.66;;;19.28;100.00
21574;BME280;10948;48.706;9.258;2023-07-29T07:42:47;97299.09;;;19.53;100.00
21574;BME280;10948;48.706;9.258;2023-07-29T07:45:12;97292.06;;;19.78;100.00
21574;BME280;10948;48.706;9.258;2023-07-29T07:47:37;97290.47;;;19.93;100.00
21574;BME280;10948;48.706;9.258;2023-07-29T07:50:02;97297.16;;;19.71;100.00
21574;BME280;10948;48.706;9.258;2023-07-29T07:52:28;97306.09;;;19.78;100.00
21574;BME280;10948;48.706;9.258;2023-07-29T07:54:53;97303.16;;;19.81;100.00
21574;BME280;10948;48.706;9.258;2023-07-29T07:57:19;97305.59;;;19.83;100.00
21574;BME280;10948;48.706;9.258;2023-07-29T07:59:45;97297.88;;;19.81;100.00
21574;BME280;10948;48.706;9.258;2023-07-29T08:02:10;97298.53;;;19.91;100.00
21574;BME280;10948;48.706;9.258;2023-07-29T08:04:36;97301.19;;;19.99;100.00
21574;BME280;10948;48.706;9.258;2023-07-29T08:07:01;97305.22;;;20.11;100.00
21574;BME280;10948;48.706;9.258;2023-07-29T08:09:26;97304.78;;;20.40;100.00
21574;BME280;10948;48.706;9.258;2023-07-29T08:11:52;97307.28;;;20.97;100.00
21574;BME280;10948;48.706;9.258;2023-07-29T08:14:17;97302.28;;;21.18;100.00
21574;BME280;10948;48.706;9.258;2023-07-29T08:16:42;97313.25;;;21.07;100.00
21574;BME280;10948;48.706;9.258;2023-07-29T08:19:07;97309.59;;;20.84;100.00
21574;BME280;10948;48.706;9.258;2023-07-29T08:21:34;97312.34;;;21.39;100.00
21574;BME280;10948;48.706;9.258;2023-07-29T08:24:00;97318.09;;;21.66;100.00
21574;BME280;10948;48.706;9.258;2023-07-29T08:26:25;97310.97;;;21.59;100.00
21574;BME280;10948;48.706;9.258;2023-07-29T08:28:50;97302.97;;;21.83;100.00
21574;BME280;10948;48.706;9.258;2023-07-29T08:31:15;97310.81;;;21.60;100.00
21574;BME280;10948;48.706;9.258;2023-07-29T08:33:41;97319.06;;;22.34;100.00
21574;BME280;10948;48.706;9.258;2023-07-29T08:36:06;97318.94;;;22.28;100.00
21574;BME280;10948;48.706;9.258;2023-07-29T08:38:31;97313.34;;;22.53;100.00
21574;BME280;10948;48.706;9.258;2023-07-29T08:44:02;97311.41;;;22.47;100.00
21574;BME280;10948;48.706;9.258;2023-07-29T08:46:29;97319.97;;;23.46;100.00
21574;BME280;10948;48.706;9.258;2023-07-29T08:48:54;97318.03;;;22.88;100.00
21574;BME280;10948;48.706;9.258;2023-07-29T08:51:20;97314.38;;;22.89;100.00
21574;BME280;10948;48.706;9.258;2023-07-29T08:53:46;97316.50;;;23.74;100.00
21574;BME280;10948;48.706;9.258;2023-07-29T08:56:12;97318.16;;;23.46;100.00
21574;BME280;10948;48.706;9.258;2023-07-29T08:58:37;97318.97;;;22.95;100.00
21574;BME280;10948;48.706;9.258;2023-07-29T09:01:04;97321.97;;;23.29;100.00
21574;BME280;10948;48.706;9.258;2023-07-29T09:03:30;97318.28;;;24.52;100.00
21574;BME280;10948;48.706;9.258;2023-07-29T09:05:55;97315.50;;;26.32;100.00
21574;BME280;10948;48.706;9.258;2023-07-29T09:08:22;97313.75;;;24.88;100.00
21574;BME280;10948;48.706;9.258;2023-07-29T09:10:48;97318.13;;;24.04;100.00
21574;BME280;10948;48.706;9.258;2023-07-29T09:13:13;97320.44;;;24.07;100.00
21574;BME280;10948;48.706;9.258;2023-07-29T09:15:38;97307.50;;;24.04;100.00
21574;BME280;10948;48.706;9.258;2023-07-29T09:18:13;97301.59;;;24.23;100.00
21574;BME280;10948;48.706;9.258;2023-07-29T09:20:39;97298.78;;;24.66;100.00
21574;BME280;10948;48.706;9.258;2023-07-29T09:23:06;97305.84;;;25.22;100.00
21574;BME280;10948;48.706;9.258;2023-07-29T09:25:32;97302.09;;;25.72;100.00
21574;BME280;10948;48.706;9.258;2023-07-29T09:28:01;97292.94;;;26.41;100.00
21574;BME280;10948;48.706;9.258;2023-07-29T09:30:26;97289.44;;;25.87;98.71
21574;BME280;10948;48.706;9.258;2023-07-29T09:32:55;97281.56;;;26.13;97.68
21574;BME280;10948;48.706;9.258;2023-07-29T09:35:21;97284.66;;;25.35;100.00
21574;BME280;10948;48.706;9.258;2023-07-29T09:37:47;97279.44;;;25.00;100.00
21574;BME280;10948;48.706;9.258;2023-07-29T09:40:15;97281.38;;;24.85;100.00
21574;BME280;10948;48.706;9.258;2023-07-29T09:42:47;97276.34;;;24.96;100.00
21574;BME280;10948;48.706;9.258;2023-07-29T09:45:14;97276.69;;;24.66;100.00
21574;BME280;10948;48.706;9.258;2023-07-29T09:47:45;97289.72;;;24.82;100.00
21574;BME280;10948;48.706;9.258;2023-07-29T09:50:11;97303.38;;;25.21;100.00
21574;BME280;10948;48.706;9.258;2023-07-29T09:52:36;97296.31;;;27.08;87.65
21574;BME280;10948;48.706;9.258;2023-07-29T09:55:01;97289.19;;;26.22;93.63
21574;BME280;10948;48.706;9.258;2023-07-29T09:57:27;97279.41;;;25.89;98.10
21574;BME280;10948;48.706;9.258;2023-07-29T09:59:55;97282.78;;;25.70;97.93
21574;BME280;10948;48.706;9.258;2023-07-29T10:02:21;97293.91;;;25.80;100.00
21574;BME280;10948;48.706;9.258;2023-07-29T10:04:47;97276.50;;;26.37;93.09
21574;BME280;10948;48.706;9.258;2023-07-29T10:07:12;97265.91;;;26.96;88.21
21574;BME280;10948;48.706;9.258;2023-07-29T10:09:39;97271.97;;;26.31;95.67
21574;BME280;10948;48.706;9.258;2023-07-29T10:12:05;97277.63;;;26.09;97.92
21574;BME280;10948;48.706;9.258;2023-07-29T10:14:31;97262.84;;;27.25;90.46
21574;BME280;10948;48.706;9.258;2023-07-29T10:16:56;97265.50;;;27.25;87.17
21574;BME280;10948;48.706;9.258;2023-07-29T10:19:22;97277.00;;;27.38;85.73
21574;BME280;10948;48.706;9.258;2023-07-29T10:21:48;97266.09;;;27.20;84.31
21574;BME280;10948;48.706;9.258;2023-07-29T10:24:18;97273.31;;;27.33;84.49
21574;BME280;10948;48.706;9.258;2023-07-29T10:26:46;97260.63;;;26.23;91.38
21574;BME280;10948;48.706;9.258;2023-07-29T10:29:12;97266.63;;;26.25;91.10
21574;BME280;10948;48.706;9.258;2023-07-29T10:31:38;97267.25;;;26.46;91.23
21574;BME280;10948;48.706;9.258;2023-07-29T10:34:05;97262.09;;;26.25;91.23
21574;BME280;10948;48.706;9.258;2023-07-29T10:36:30;97263.38;;;26.42;86.14
21574;BME280;10948;48.706;9.258;2023-07-29T10:38:55;97258.78;;;26.17;84.05
21574;BME280;10948;48.706;9.258;2023-07-29T10:41:21;97261.75;;;27.52;81.78
21574;BME280;10948;48.706;9.258;2023-07-29T10:43:46;97262.38;;;29.10;71.12
21574;BME280;10948;48.706;9.258;2023-07-29T10:46:18;97264.63;;;29.74;63.25
21574;BME280;10948;48.706;9.258;2023-07-29T10:51:25;97256.28;;;30.00;59.83
21574;BME280;10948;48.706;9.258;2023-07-29T10:53:54;97258.84;;;29.10;64.16
21574;BME280;10948;48.706;9.258;2023-07-29T10:56:24;97259.47;;;30.97;58.91
21574;BME280;10948;48.706;9.258;2023-07-29T10:58:50;97249.22;;;31.40;57.84
21574;BME280;10948;48.706;9.258;2023-07-29T11:01:25;97242.38;;;29.06;61.30
21574;BME280;10948;48.706;9.258;2023-07-29T11:06:56;97248.25;;;28.41;63.70
21574;BME280;10948;48.706;9.258;2023-07-29T11:12:49;97259.84;;;29.76;57.54
21574;BME280;10948;48.706;9.258;2023-07-29T11:14:49;97265.53;;;29.86;55.05
21574;BME280;10948;48.706;9.258;2023-07-29T11:17:14;97264.34;;;30.18;53.80
21574;BME280;10948;48.706;9.258;2023-07-29T11:19:40;97256.13;;;30.13;53.11
21574;BME280;10948;48.706;9.258;2023-07-29T11:22:05;97261.88;;;29.20;56.72
21574;BME280;10948;48.706;9.258;2023-07-29T11:24:30;97264.47;;;29.69;57.55
21574;BME280;10948;48.706;9.258;2023-07-29T11:26:56;97273.25;;;30.30;54.23
21574;BME280;10948;48.706;9.258;2023-07-29T11:29:21;97257.25;;;31.17;52.54
21574;BME280;10948;48.706;9.258;2023-07-29T11:31:46;97257.63;;;29.91;55.69
21574;BME280;10948;48.706;9.258;2023-07-29T11:34:12;97264.25;;;28.48;58.07
21574;BME280;10948;48.706;9.258;2023-07-29T11:36:45;97259.00;;;28.28;57.48
21574;BME280;10948;48.706;9.258;2023-07-29T11:39:10;97261.38;;;28.49;57.17
21574;BME280;10948;48.706;9.258;2023-07-29T11:41:36;97253.81;;;29.20;54.64
21574;BME280;10948;48.706;9.258;2023-07-29T11:44:02;97253.09;;;29.06;54.16
21574;BME280;10948;48.706;9.258;2023-07-29T11:46:27;97255.28;;;28.98;55.29
21574;BME280;10948;48.706;9.258;2023-07-29T11:48:53;97254.81;;;31.38;51.92
21574;BME280;10948;48.706;9.258;2023-07-29T11:51:19;97246.75;;;31.27;51.05
21574;BME280;10948;48.706;9.258;2023-07-29T11:53:44;97241.78;;;30.01;52.45
21574;BME280;10948;48.706;9.258;2023-07-29T11:56:10;97248.00;;;29.23;54.21
21574;BME280;10948;48.706;9.258;2023-07-29T11:58:36;97255.09;;;29.60;52.25
21574;BME280;10948;48.706;9.258;2023-07-29T12:01:02;97250.19;;;29.57;54.45
21574;BME280;10948;48.706;9.258;2023-07-29T12:03:28;97251.31;;;29.25;54.70
21574;BME280;10948;48.706;9.258;2023-07-29T12:05:54;97251.19;;;29.38;53.01
21574;BME280;10948;48.706;9.258;2023-07-29T12:08:19;97257.97;;;29.16;54.30
21574;BME280;10948;48.706;9.258;2023-07-29T12:10:44;97248.16;;;29.52;52.37
21574;BME280;10948;48.706;9.258;2023-07-29T12:13:10;97246.78;;;28.70;53.07
21574;BME280;10948;48.706;9.258;2023-07-29T12:15:37;97238.25;;;28.55;55.73
21574;BME280;10948;48.706;9.258;2023-07-29T12:18:03;97235.25;;;28.45;54.53
21574;BME280;10948;48.706;9.258;2023-07-29T12:20:29;97247.31;;;28.85;52.87
21574;BME280;10948;48.706;9.258;2023-07-29T12:22:58;97233.38;;;28.70;52.99
21574;BME280;10948;48.706;9.258;2023-07-29T12:25:24;97242.47;;;29.00;52.92
21574;BME280;10948;48.706;9.258;2023-07-29T12:27:50;97243.63;;;29.46;51.41
21574;BME280;10948;48.706;9.258;2023-07-29T12:30:15;97244.38;;;29.78;51.77
21574;BME280;10948;48.706;9.258;2023-07-29T12:32:45;97240.00;;;29.41;51.18
21574;BME280;10948;48.706;9.258;2023-07-29T12:35:11;97240.41;;;29.20;51.60
21574;BME280;10948;48.706;9.258;2023-07-29T12:37:36;97232.41;;;29.38;51.44
21574;BME280;10948;48.706;9.258;2023-07-29T12:40:03;97228.31;;;29.53;51.50
21574;BME280;10948;48.706;9.258;2023-07-29T12:42:29;97231.69;;;30.32;51.64
21574;BME280;10948;48.706;9.258;2023-07-29T12:44:54;97240.47;;;30.10;50.65
21574;BME280;10948;48.706;9.258;2023-07-29T12:47:19;97235.28;;;30.26;50.32
21574;BME280;10948;48.706;9.258;2023-07-29T12:49:44;97240.81;;;30.72;50.55
21574;BME280;10948;48.706;9.258;2023-07-29T12:52:10;97232.47;;;30.51;50.85
21574;BME280;10948;48.706;9.258;2023-07-29T12:54:35;97238.38;;;29.94;52.28
21574;BME280;10948;48.706;9.258;2023-07-29T12:57:00;97244.47;;;30.48;51.14
21574;BME280;10948;48.706;9.258;2023-07-29T12:59:25;97249.72;;;29.60;51.92